sensor_id;sensor_type;location;lat;lon;timestamp;P1;durP1;ratioP1;P2;durP2;ratioP2
4754;SDS011;2391;47.212;7.542;2024-02-21T00:00:47;2.90;;;2.03;;
4754;SDS011;2391;47.212;7.542;2024-02-21T00:03:13;4.70;;;1.73;;
4754;SDS011;2391;47.212;7.542;2024-02-21T00:05:39;2.53;;;2.00;;
4754;SDS011;2391;47.212;7.542;2024-02-21T00:08:05;2.93;;;1.80;;
4754;SDS011;2391;47.212;7.542;2024-02-21T00:10:31;3.90;;;2.10;;
4754;SDS011;2391;47.212;7.542;2024-02-21T00:13:00;8.93;;;1.87;;
4754;SDS011;2391;47.212;7.542;2024-02-21T00:15:26;3.70;;;2.13;;
4754;SDS011;2391;47.212;7.542;2024-02-21T00:17:52;2.30;;;1.57;;
4754;SDS011;2391;47.212;7.542;2024-02-21T00:20:18;2.00;;;1.80;;
4754;SDS011;2391;47.212;7.542;2024-02-21T00:22:44;3.40;;;1.90;;
4754;SDS011;2391;47.212;7.542;2024-02-21T00:25:10;3.40;;;1.80;;
4754;SDS011;2391;47.212;7.542;2024-02-21T00:27:36;2.50;;;2.30;;
4754;SDS011;2391;47.212;7.542;2024-02-21T00:30:02;4.30;;;1.87;;
4754;SDS011;2391;47.212;7.542;2024-02-21T00:32:29;2.40;;;1.67;;
4754;SDS011;2391;47.212;7.542;2024-02-21T00:34:54;3.27;;;2.20;;
4754;SDS011;2391;47.212;7.542;2024-02-21T00:37:20;3.10;;;1.93;;
4754;SDS011;2391;47.212;7.542;2024-02-21T00:39:46;2.83;;;1.80;;
4754;SDS011;2391;47.212;7.542;2024-02-21T00:42:15;1.80;;;1.70;;
4754;SDS011;2391;47.212;7.542;2024-02-21T00:44:40;2.87;;;2.20;;
4754;SDS011;2391;47.212;7.542;2024-02-21T00:47:06;2.67;;;1.80;;
4754;SDS011;2391;47.212;7.542;2024-02-21T00:49:32;2.20;;;2.00;;
4754;SDS011;2391;47.212;7.542;2024-02-21T00:51:57;2.90;;;2.03;;
4754;SDS011;2391;47.212;7.542;2024-02-21T00:54:23;2.93;;;2.60;;
4754;SDS011;2391;47.212;7.542;2024-02-21T00:56:49;1.87;;;1.77;;
4754;SDS011;2391;47.212;7.542;2024-02-21T00:59:15;6.20;;;2.03;;
4754;SDS011;2391;47.212;7.542;2024-02-21T01:01:40;2.30;;;2.00;;
4754;SDS011;2391;47.212;7.542;2024-02-21T01:04:09;1.70;;;1.60;;
4754;SDS011;2391;47.212;7.542;2024-02-21T01:06:35;3.93;;;2.30;;
4754;SDS011;2391;47.212;7.542;2024-02-21T01:09:01;2.70;;;2.17;;
4754;SDS011;2391;47.212;7.542;2024-02-21T01:11:26;3.37;;;2.03;;
4754;SDS011;2391;47.212;7.542;2024-02-21T01:13:53;4.17;;;1.60;;
4754;SDS011;2391;47.212;7.542;2024-02-21T01:16:20;2.13;;;1.70;;
4754;SDS011;2391;47.212;7.542;2024-02-21T01:18:46;6.47;;;2.10;;
4754;SDS011;2391;47.212;7.542;2024-02-21T01:21:12;5.50;;;1.70;;
4754;SDS011;2391;47.212;7.542;2024-02-21T01:23:38;3.40;;;1.97;;
4754;SDS011;2391;47.212;7.542;2024-02-21T01:26:06;3.27;;;1.87;;
4754;SDS011;2391;47.212;7.542;2024-02-21T01:28:34;3.47;;;2.00;;
4754;SDS011;2391;47.212;7.542;2024-02-21T01:31:00;7.30;;;2.03;;
4754;SDS011;2391;47.212;7.542;2024-02-21T01:33:26;2.30;;;1.83;;
4754;SDS011;2391;47.212;7.542;2024-02-21T01:35:52;2.93;;;1.60;;
4754;SDS011;2391;47.212;7.542;2024-02-21T01:38:18;2.40;;;1.70;;
4754;SDS011;2391;47.212;7.542;2024-02-21T01:40:44;1.77;;;1.63;;
4754;SDS011;2391;47.212;7.542;2024-02-21T01:43:16;3.73;;;1.70;;
4754;SDS011;2391;47.212;7.542;2024-02-21T01:45:48;2.43;;;1.57;;
4754;SDS011;2391;47.212;7.542;2024-02-21T01:48:21;2.47;;;1.53;;
4754;SDS011;2391;47.212;7.542;2024-02-21T01:50:45;1.40;;;1.30;;
4754;SDS011;2391;47.212;7.542;2024-02-21T01:53:11;1.43;;;1.33;;
4754;SDS011;2391;47.212;7.542;2024-02-21T01:55:41;3.00;;;1.30;;
4754;SDS011;2391;47.212;7.542;2024-02-21T01:58:07;1.90;;;1.67;;
4754;SDS011;2391;47.212;7.542;2024-02-21T02:00:33;1.80;;;1.63;;
4754;SDS011;2391;47.212;7.542;2024-02-21T02:03:00;2.03;;;1.10;;
4754;SDS011;2391;47.212;7.542;2024-02-21T02:05:26;13.83;;;1.63;;
4754;SDS011;2391;47.212;7.542;2024-02-21T02:07:52;3.53;;;2.40;;
4754;SDS011;2391;47.212;7.542;2024-02-21T02:10:18;1.60;;;1.50;;
4754;SDS011;2391;47.212;7.542;2024-02-21T02:12:43;2.30;;;2.13;;
4754;SDS011;2391;47.212;7.542;2024-02-21T02:15:09;3.23;;;2.33;;
4754;SDS011;2391;47.212;7.542;2024-02-21T02:17:35;3.03;;;1.73;;
4754;SDS011;2391;47.212;7.542;2024-02-21T02:20:01;2.30;;;1.70;;
4754;SDS011;2391;47.212;7.542;2024-02-21T02:22:29;3.83;;;1.80;;
4754;SDS011;2391;47.212;7.542;2024-02-21T02:24:58;1.63;;;1.50;;
4754;SDS011;2391;47.212;7.542;2024-02-21T02:27:24;3.23;;;1.63;;
4754;SDS011;2391;47.212;7.542;2024-02-21T02:29:50;2.60;;;1.73;;
4754;SDS011;2391;47.212;7.542;2024-02-21T02:32:17;3.20;;;1.90;;
4754;SDS011;2391;47.212;7.542;2024-02-21T02:34:42;1.43;;;1.33;;
4754;SDS011;2391;47.212;7.542;2024-02-21T02:37:08;2.13;;;1.63;;
4754;SDS011;2391;47.212;7.542;2024-02-21T02:39:34;2.97;;;1.80;;
4754;SDS011;2391;47.212;7.542;2024-02-21T02:42:01;2.57;;;2.30;;
4754;SDS011;2391;47.212;7.542;2024-02-21T02:44:27;3.00;;;2.03;;
4754;SDS011;2391;47.212;7.542;2024-02-21T02:46:53;1.90;;;1.80;;
4754;SDS011;2391;47.212;7.542;2024-02-21T02:49:19;3.47;;;1.93;;
4754;SDS011;2391;47.212;7.542;2024-02-21T02:51:44;2.17;;;1.30;;
4754;SDS011;2391;47.212;7.542;2024-02-21T02:54:10;3.93;;;2.00;;
4754;SDS011;2391;47.212;7.542;2024-02-21T02:56:37;5.07;;;2.03;;
4754;SDS011;2391;47.212;7.542;2024-02-21T02:59:02;1.50;;;1.40;;
4754;SDS011;2391;47.212;7.542;2024-02-21T03:01:28;2.07;;;1.60;;
4754;SDS011;2391;47.212;7.542;2024-02-21T03:03:54;3.43;;;2.67;;
4754;SDS011;2391;47.212;7.542;2024-02-21T03:06:20;2.20;;;1.40;;
4754;SDS011;2391;47.212;7.542;2024-02-21T03:08:46;4.00;;;1.70;;
4754;SDS011;2391;47.212;7.542;2024-02-21T03:11:11;3.67;;;1.97;;
4754;SDS011;2391;47.212;7.542;2024-02-21T03:13:37;1.93;;;1.83;;
4754;SDS011;2391;47.212;7.542;2024-02-21T03:16:03;1.90;;;1.80;;
4754;SDS011;2391;47.212;7.542;2024-02-21T03:18:29;3.43;;;1.90;;
4754;SDS011;2391;47.212;7.542;2024-02-21T03:20:55;2.87;;;1.73;;
4754;SDS011;2391;47.212;7.542;2024-02-21T03:23:21;3.57;;;1.70;;
4754;SDS011;2391;47.212;7.542;2024-02-21T03:25:46;2.90;;;1.80;;
4754;SDS011;2391;47.212;7.542;2024-02-21T03:28:12;1.70;;;1.60;;
4754;SDS011;2391;47.212;7.542;2024-02-21T03:30:38;1.67;;;1.57;;
4754;SDS011;2391;47.212;7.542;2024-02-21T03:33:04;2.40;;;1.73;;
4754;SDS011;2391;47.212;7.542;2024-02-21T03:35:30;3.67;;;1.83;;
4754;SDS011;2391;47.212;7.542;2024-02-21T03:37:56;5.40;;;1.97;;
4754;SDS011;2391;47.212;7.542;2024-02-21T03:40:21;2.27;;;1.63;;
4754;SDS011;2391;47.212;7.542;2024-02-21T03:42:47;3.40;;;1.80;;
4754;SDS011;2391;47.212;7.542;2024-02-21T03:45:13;2.63;;;2.10;;
4754;SDS011;2391;47.212;7.542;2024-02-21T03:47:39;4.63;;;1.87;;
4754;SDS011;2391;47.212;7.542;2024-02-21T03:50:05;1.93;;;1.83;;
4754;SDS011;2391;47.212;7.542;2024-02-21T03:52:32;1.70;;;1.60;;
4754;SDS011;2391;47.212;7.542;2024-02-21T03:54:57;1.60;;;1.50;;
4754;SDS011;2391;47.212;7.542;2024-02-21T03:57:23;2.30;;;1.90;;
4754;SDS011;2391;47.212;7.542;2024-02-21T03:59:52;1.70;;;1.60;;
4754;SDS011;2391;47.212;7.542;2024-02-21T04:02:17;10.90;;;1.97;;
4754;SDS011;2391;47.212;7.542;2024-02-21T04:04:44;2.50;;;2.03;;
4754;SDS011;2391;47.212;7.542;2024-02-21T04:07:12;2.53;;;1.80;;
4754;SDS011;2391;47.212;7.542;2024-02-21T04:09:39;3.23;;;1.60;;
4754;SDS011;2391;47.212;7.542;2024-02-21T04:12:05;4.10;;;1.77;;
4754;SDS011;2391;47.212;7.542;2024-02-21T04:14:33;1.67;;;1.57;;
4754;SDS011;2391;47.212;7.542;2024-02-21T04:17:00;1.70;;;1.53;;
4754;SDS011;2391;47.212;7.542;2024-02-21T04:19:25;1.37;;;1.27;;
4754;SDS011;2391;47.212;7.542;2024-02-21T04:21:51;3.00;;;1.70;;
4754;SDS011;2391;47.212;7.542;2024-02-21T04:24:17;6.23;;;1.70;;
4754;SDS011;2391;47.212;7.542;2024-02-21T04:26:43;2.03;;;1.93;;
4754;SDS011;2391;47.212;7.542;2024-02-21T04:29:09;2.33;;;1.60;;
4754;SDS011;2391;47.212;7.542;2024-02-21T04:31:35;3.63;;;2.30;;
4754;SDS011;2391;47.212;7.542;2024-02-21T04:34:00;2.60;;;1.60;;
4754;SDS011;2391;47.212;7.542;2024-02-21T04:36:26;3.13;;;1.57;;
4754;SDS011;2391;47.212;7.542;2024-02-21T04:38:52;2.50;;;1.43;;
4754;SDS011;2391;47.212;7.542;2024-02-21T04:41:18;3.53;;;1.70;;
4754;SDS011;2391;47.212;7.542;2024-02-21T04:43:45;2.90;;;1.70;;
4754;SDS011;2391;47.212;7.542;2024-02-21T04:46:11;1.90;;;1.80;;
4754;SDS011;2391;47.212;7.542;2024-02-21T04:48:37;3.10;;;1.50;;
4754;SDS011;2391;47.212;7.542;2024-02-21T04:51:03;4.03;;;1.80;;
4754;SDS011;2391;47.212;7.542;2024-02-21T04:53:29;1.50;;;1.40;;
4754;SDS011;2391;47.212;7.542;2024-02-21T04:55:55;5.27;;;2.43;;
4754;SDS011;2391;47.212;7.542;2024-02-21T04:58:20;1.83;;;1.73;;
4754;SDS011;2391;47.212;7.542;2024-02-21T05:00:46;3.17;;;1.97;;
4754;SDS011;2391;47.212;7.542;2024-02-21T05:03:12;2.60;;;1.80;;
4754;SDS011;2391;47.212;7.542;2024-02-21T05:05:38;3.03;;;2.43;;
4754;SDS011;2391;47.212;7.542;2024-02-21T05:08:03;4.17;;;2.00;;
4754;SDS011;2391;47.212;7.542;2024-02-21T05:10:29;2.90;;;1.70;;
4754;SDS011;2391;47.212;7.542;2024-02-21T05:12:55;2.43;;;2.17;;
4754;SDS011;2391;47.212;7.542;2024-02-21T05:15:21;3.20;;;2.20;;
4754;SDS011;2391;47.212;7.542;2024-02-21T05:17:47;2.47;;;1.70;;
4754;SDS011;2391;47.212;7.542;2024-02-21T05:20:12;2.83;;;1.90;;
4754;SDS011;2391;47.212;7.542;2024-02-21T05:22:38;6.00;;;2.30;;
4754;SDS011;2391;47.212;7.542;2024-02-21T05:25:04;2.43;;;2.20;;
4754;SDS011;2391;47.212;7.542;2024-02-21T05:27:31;2.27;;;2.07;;
4754;SDS011;2391;47.212;7.542;2024-02-21T05:29:57;2.20;;;1.70;;
4754;SDS011;2391;47.212;7.542;2024-02-21T05:32:23;3.07;;;1.50;;
4754;SDS011;2391;47.212;7.542;2024-02-21T05:34:50;2.17;;;1.60;;
4754;SDS011;2391;47.212;7.542;2024-02-21T05:37:16;5.40;;;1.90;;
4754;SDS011;2391;47.212;7.542;2024-02-21T05:39:42;5.83;;;1.97;;
4754;SDS011;2391;47.212;7.542;2024-02-21T05:42:07;4.10;;;2.13;;
4754;SDS011;2391;47.212;7.542;2024-02-21T05:44:33;2.40;;;1.67;;
4754;SDS011;2391;47.212;7.542;2024-02-21T05:46:59;2.47;;;1.97;;
4754;SDS011;2391;47.212;7.542;2024-02-21T05:49:25;1.73;;;1.63;;
4754;SDS011;2391;47.212;7.542;2024-02-21T05:51:50;4.67;;;1.60;;
4754;SDS011;2391;47.212;7.542;2024-02-21T05:54:16;4.20;;;2.10;;
4754;SDS011;2391;47.212;7.542;2024-02-21T05:56:45;2.17;;;1.97;;
4754;SDS011;2391;47.212;7.542;2024-02-21T05:59:12;3.00;;;1.70;;
4754;SDS011;2391;47.212;7.542;2024-02-21T06:01:38;3.67;;;1.80;;
4754;SDS011;2391;47.212;7.542;2024-02-21T06:04:04;1.70;;;1.60;;
4754;SDS011;2391;47.212;7.542;2024-02-21T06:06:30;3.57;;;1.90;;
4754;SDS011;2391;47.212;7.542;2024-02-21T06:08:56;2.20;;;2.10;;
4754;SDS011;2391;47.212;7.542;2024-02-21T06:11:22;2.13;;;2.03;;
4754;SDS011;2391;47.212;7.542;2024-02-21T06:13:48;2.10;;;2.00;;
4754;SDS011;2391;47.212;7.542;2024-02-21T06:16:13;3.67;;;2.40;;
4754;SDS011;2391;47.212;7.542;2024-02-21T06:18:39;2.00;;;1.90;;
4754;SDS011;2391;47.212;7.542;2024-02-21T06:21:05;5.43;;;1.70;;
4754;SDS011;2391;47.212;7.542;2024-02-21T06:23:31;3.43;;;1.87;;
4754;SDS011;2391;47.212;7.542;2024-02-21T06:25:57;2.73;;;2.53;;
4754;SDS011;2391;47.212;7.542;2024-02-21T06:28:22;3.13;;;1.70;;
4754;SDS011;2391;47.212;7.542;2024-02-21T06:30:48;1.93;;;1.80;;
4754;SDS011;2391;47.212;7.542;2024-02-21T06:33:14;2.10;;;1.90;;
4754;SDS011;2391;47.212;7.542;2024-02-21T06:35:40;3.50;;;1.90;;
4754;SDS011;2391;47.212;7.542;2024-02-21T06:38:07;4.10;;;2.43;;
4754;SDS011;2391;47.212;7.542;2024-02-21T06:40:33;2.77;;;2.00;;
4754;SDS011;2391;47.212;7.542;2024-02-21T06:43:01;2.13;;;1.93;;
4754;SDS011;2391;47.212;7.542;2024-02-21T06:45:27;1.90;;;1.80;;
4754;SDS011;2391;47.212;7.542;2024-02-21T06:47:52;4.07;;;1.90;;
4754;SDS011;2391;47.212;7.542;2024-02-21T06:50:19;2.70;;;1.67;;
4754;SDS011;2391;47.212;7.542;2024-02-21T06:52:45;2.17;;;1.83;;
4754;SDS011;2391;47.212;7.542;2024-02-21T06:55:11;3.00;;;2.07;;
4754;SDS011;2391;47.212;7.542;2024-02-21T06:57:37;3.37;;;1.90;;
4754;SDS011;2391;47.212;7.542;2024-02-21T07:00:02;6.27;;;3.37;;
4754;SDS011;2391;47.212;7.542;2024-02-21T07:02:29;6.13;;;3.90;;
4754;SDS011;2391;47.212;7.542;2024-02-21T07:04:54;5.30;;;3.37;;
4754;SDS011;2391;47.212;7.542;2024-02-21T07:07:20;5.10;;;3.37;;
4754;SDS011;2391;47.212;7.542;2024-02-21T07:09:47;6.03;;;3.13;;
4754;SDS011;2391;47.212;7.542;2024-02-21T07:12:14;4.60;;;2.47;;
4754;SDS011;2391;47.212;7.542;2024-02-21T07:14:39;2.97;;;2.73;;
4754;SDS011;2391;47.212;7.542;2024-02-21T07:17:05;6.30;;;3.33;;
4754;SDS011;2391;47.212;7.542;2024-02-21T07:19:31;4.33;;;2.83;;
4754;SDS011;2391;47.212;7.542;2024-02-21T07:21:56;4.87;;;3.10;;
4754;SDS011;2391;47.212;7.542;2024-02-21T07:24:22;4.20;;;3.00;;
4754;SDS011;2391;47.212;7.542;2024-02-21T07:26:48;11.73;;;2.93;;
4754;SDS011;2391;47.212;7.542;2024-02-21T07:29:14;6.43;;;3.47;;
4754;SDS011;2391;47.212;7.542;2024-02-21T07:31:40;6.97;;;2.67;;
4754;SDS011;2391;47.212;7.542;2024-02-21T07:34:07;6.17;;;2.57;;
4754;SDS011;2391;47.212;7.542;2024-02-21T07:36:33;9.70;;;3.70;;
4754;SDS011;2391;47.212;7.542;2024-02-21T07:38:59;2.80;;;2.60;;
4754;SDS011;2391;47.212;7.542;2024-02-21T07:41:25;3.20;;;2.90;;
4754;SDS011;2391;47.212;7.542;2024-02-21T07:43:51;5.00;;;3.47;;
4754;SDS011;2391;47.212;7.542;2024-02-21T07:46:17;5.33;;;3.13;;
4754;SDS011;2391;47.212;7.542;2024-02-21T07:48:47;4.37;;;3.07;;
4754;SDS011;2391;47.212;7.542;2024-02-21T07:51:13;5.03;;;2.60;;
4754;SDS011;2391;47.212;7.542;2024-02-21T07:53:39;5.87;;;3.30;;
4754;SDS011;2391;47.212;7.542;2024-02-21T07:56:10;3.80;;;2.90;;
4754;SDS011;2391;47.212;7.542;2024-02-21T07:58:37;5.23;;;3.10;;
4754;SDS011;2391;47.212;7.542;2024-02-21T08:01:03;4.30;;;2.97;;
4754;SDS011;2391;47.212;7.542;2024-02-21T08:03:29;3.40;;;2.93;;
4754;SDS011;2391;47.212;7.542;2024-02-21T08:05:55;5.60;;;2.90;;
4754;SDS011;2391;47.212;7.542;2024-02-21T08:08:20;4.37;;;2.77;;
4754;SDS011;2391;47.212;7.542;2024-02-21T08:10:48;3.23;;;2.83;;
4754;SDS011;2391;47.212;7.542;2024-02-21T08:13:14;4.83;;;2.63;;
4754;SDS011;2391;47.212;7.542;2024-02-21T08:15:40;6.90;;;3.13;;
4754;SDS011;2391;47.212;7.542;2024-02-21T08:18:07;4.80;;;2.87;;
4754;SDS011;2391;47.212;7.542;2024-02-21T08:20:33;5.73;;;3.07;;
4754;SDS011;2391;47.212;7.542;2024-02-21T08:23:00;3.07;;;2.87;;
4754;SDS011;2391;47.212;7.542;2024-02-21T08:25:26;3.43;;;3.13;;
4754;SDS011;2391;47.212;7.542;2024-02-21T08:27:53;3.43;;;3.13;;
4754;SDS011;2391;47.212;7.542;2024-02-21T08:30:21;3.67;;;3.47;;
4754;SDS011;2391;47.212;7.542;2024-02-21T08:32:46;3.07;;;2.87;;
4754;SDS011;2391;47.212;7.542;2024-02-21T08:35:12;5.57;;;3.67;;
4754;SDS011;2391;47.212;7.542;2024-02-21T08:37:38;3.80;;;3.50;;
4754;SDS011;2391;47.212;7.542;2024-02-21T08:40:04;5.60;;;3.27;;
4754;SDS011;2391;47.212;7.542;2024-02-21T08:42:32;6.40;;;3.87;;
4754;SDS011;2391;47.212;7.542;2024-02-21T08:44:58;4.40;;;3.57;;
4754;SDS011;2391;47.212;7.542;2024-02-21T08:47:23;3.73;;;3.30;;
4754;SDS011;2391;47.212;7.542;2024-02-21T08:49:49;4.13;;;3.83;;
4754;SDS011;2391;47.212;7.542;2024-02-21T08:52:15;6.63;;;4.30;;
4754;SDS011;2391;47.212;7.542;2024-02-21T08:54:41;5.73;;;4.20;;
4754;SDS011;2391;47.212;7.542;2024-02-21T08:57:07;8.87;;;4.03;;
4754;SDS011;2391;47.212;7.542;2024-02-21T08:59:32;5.30;;;3.47;;
4754;SDS011;2391;47.212;7.542;2024-02-21T09:01:58;4.23;;;3.70;;
4754;SDS011;2391;47.212;7.542;2024-02-21T09:04:24;4.63;;;4.20;;
4754;SDS011;2391;47.212;7.542;2024-02-21T09:06:50;4.80;;;3.80;;
4754;SDS011;2391;47.212;7.542;2024-02-21T09:09:17;3.73;;;3.40;;
4754;SDS011;2391;47.212;7.542;2024-02-21T09:11:43;8.63;;;3.53;;
4754;SDS011;2391;47.212;7.542;2024-02-21T09:14:09;7.23;;;4.23;;
4754;SDS011;2391;47.212;7.542;2024-02-21T09:16:35;4.93;;;3.97;;
4754;SDS011;2391;47.212;7.542;2024-02-21T09:19:00;5.77;;;4.17;;
4754;SDS011;2391;47.212;7.542;2024-02-21T09:21:26;4.80;;;3.63;;
4754;SDS011;2391;47.212;7.542;2024-02-21T09:23:53;8.00;;;4.13;;
4754;SDS011;2391;47.212;7.542;2024-02-21T09:26:20;5.80;;;2.90;;
4754;SDS011;2391;47.212;7.542;2024-02-21T09:28:45;4.30;;;3.53;;
4754;SDS011;2391;47.212;7.542;2024-02-21T09:31:11;7.43;;;3.60;;
4754;SDS011;2391;47.212;7.542;2024-02-21T09:33:37;3.63;;;3.27;;
4754;SDS011;2391;47.212;7.542;2024-02-21T09:36:03;3.87;;;3.57;;
4754;SDS011;2391;47.212;7.542;2024-02-21T09:38:31;3.93;;;3.57;;
4754;SDS011;2391;47.212;7.542;2024-02-21T09:41:04;5.43;;;3.27;;
4754;SDS011;2391;47.212;7.542;2024-02-21T09:43:46;3.77;;;3.47;;
4754;SDS011;2391;47.212;7.542;2024-02-21T09:46:13;4.37;;;3.30;;
4754;SDS011;2391;47.212;7.542;2024-02-21T09:51:44;4.40;;;3.40;;
4754;SDS011;2391;47.212;7.542;2024-02-21T09:54:11;6.30;;;4.03;;
4754;SDS011;2391;47.212;7.542;2024-02-21T09:56:37;5.13;;;4.23;;
4754;SDS011;2391;47.212;7.542;2024-02-21T09:59:03;3.57;;;3.27;;
4754;SDS011;2391;47.212;7.542;2024-02-21T10:01:31;4.40;;;3.37;;
4754;SDS011;2391;47.212;7.542;2024-02-21T10:03:57;3.87;;;2.93;;
4754;SDS011;2391;47.212;7.542;2024-02-21T10:06:23;3.77;;;3.40;;
4754;SDS011;2391;47.212;7.542;2024-02-21T10:08:54;3.53;;;3.20;;
4754;SDS011;2391;47.212;7.542;2024-02-21T10:11:23;7.03;;;3.30;;
4754;SDS011;2391;47.212;7.542;2024-02-21T10:13:50;10.70;;;3.70;;
4754;SDS011;2391;47.212;7.542;2024-02-21T10:16:16;5.23;;;3.77;;
4754;SDS011;2391;47.212;7.542;2024-02-21T10:18:42;7.20;;;3.80;;
4754;SDS011;2391;47.212;7.542;2024-02-21T10:21:08;3.70;;;3.40;;
4754;SDS011;2391;47.212;7.542;2024-02-21T10:23:40;5.67;;;3.90;;
4754;SDS011;2391;47.212;7.542;2024-02-21T10:26:08;4.90;;;3.60;;
4754;SDS011;2391;47.212;7.542;2024-02-21T10:28:34;4.83;;;3.90;;
4754;SDS011;2391;47.212;7.542;2024-02-21T10:31:00;4.30;;;4.00;;
4754;SDS011;2391;47.212;7.542;2024-02-21T10:33:25;12.97;;;4.53;;
4754;SDS011;2391;47.212;7.542;2024-02-21T10:35:53;3.83;;;3.53;;
4754;SDS011;2391;47.212;7.542;2024-02-21T10:38:19;3.93;;;3.47;;
4754;SDS011;2391;47.212;7.542;2024-02-21T10:40:45;5.40;;;4.70;;
4754;SDS011;2391;47.212;7.542;2024-02-21T10:43:12;7.53;;;4.60;;
4754;SDS011;2391;47.212;7.542;2024-02-21T10:45:43;3.70;;;3.40;;
4754;SDS011;2391;47.212;7.542;2024-02-21T10:48:12;6.47;;;3.80;;
4754;SDS011;2391;47.212;7.542;2024-02-21T10:50:47;4.13;;;3.50;;
4754;SDS011;2391;47.212;7.542;2024-02-21T10:53:40;3.67;;;3.27;;
4754;SDS011;2391;47.212;7.542;2024-02-21T10:58:50;3.10;;;2.90;;
4754;SDS011;2391;47.212;7.542;2024-02-21T11:01:17;4.33;;;3.33;;
4754;SDS011;2391;47.212;7.542;2024-02-21T11:03:45;5.10;;;2.80;;
4754;SDS011;2391;47.212;7.542;2024-02-21T11:06:13;2.83;;;2.63;;
4754;SDS011;2391;47.212;7.542;2024-02-21T11:08:40;3.07;;;2.87;;
4754;SDS011;2391;47.212;7.542;2024-02-21T11:11:06;4.40;;;3.23;;
4754;SDS011;2391;47.212;7.542;2024-02-21T11:13:34;3.10;;;2.90;;
4754;SDS011;2391;47.212;7.542;2024-02-21T11:16:07;2.30;;;2.10;;
4754;SDS011;2391;47.212;7.542;2024-02-21T11:18:37;3.77;;;2.70;;
4754;SDS011;2391;47.212;7.542;2024-02-21T11:21:03;6.10;;;2.87;;
4754;SDS011;2391;47.212;7.542;2024-02-21T11:23:32;2.87;;;2.67;;
4754;SDS011;2391;47.212;7.542;2024-02-21T11:26:04;2.80;;;2.43;;
4754;SDS011;2391;47.212;7.542;2024-02-21T11:28:31;4.20;;;2.53;;
4754;SDS011;2391;47.212;7.542;2024-02-21T11:31:07;3.73;;;3.37;;
4754;SDS011;2391;47.212;7.542;2024-02-21T11:33:35;2.70;;;2.50;;
4754;SDS011;2391;47.212;7.542;2024-02-21T11:36:01;2.27;;;2.17;;
4754;SDS011;2391;47.212;7.542;2024-02-21T11:38:29;3.00;;;2.23;;
4754;SDS011;2391;47.212;7.542;2024-02-21T11:40:55;2.70;;;2.50;;
4754;SDS011;2391;47.212;7.542;2024-02-21T11:43:20;4.53;;;2.50;;
4754;SDS011;2391;47.212;7.542;2024-02-21T11:45:46;3.70;;;1.60;;
4754;SDS011;2391;47.212;7.542;2024-02-21T11:48:12;3.37;;;2.37;;
4754;SDS011;2391;47.212;7.542;2024-02-21T11:50:39;2.30;;;2.10;;
4754;SDS011;2391;47.212;7.542;2024-02-21T11:53:05;2.07;;;1.93;;
4754;SDS011;2391;47.212;7.542;2024-02-21T11:55:31;2.43;;;2.23;;
4754;SDS011;2391;47.212;7.542;2024-02-21T11:57:57;2.87;;;2.00;;
4754;SDS011;2391;47.212;7.542;2024-02-21T12:00:23;2.80;;;1.97;;
4754;SDS011;2391;47.212;7.542;2024-02-21T12:02:51;2.00;;;1.90;;
4754;SDS011;2391;47.212;7.542;2024-02-21T12:05:18;5.20;;;2.10;;
4754;SDS011;2391;47.212;7.542;2024-02-21T12:07:45;2.47;;;2.30;;
4754;SDS011;2391;47.212;7.542;2024-02-21T12:10:11;3.00;;;2.80;;
4754;SDS011;2391;47.212;7.542;2024-02-21T12:12:38;2.40;;;2.20;;
4754;SDS011;2391;47.212;7.542;2024-02-21T12:15:04;3.67;;;2.00;;
4754;SDS011;2391;47.212;7.542;2024-02-21T12:17:35;2.90;;;2.30;;
4754;SDS011;2391;47.212;7.542;2024-02-21T12:20:02;1.90;;;1.80;;
4754;SDS011;2391;47.212;7.542;2024-02-21T12:22:33;2.03;;;1.93;;
4754;SDS011;2391;47.212;7.542;2024-02-21T12:24:58;6.20;;;2.57;;
4754;SDS011;2391;47.212;7.542;2024-02-21T12:27:24;2.30;;;2.13;;
4754;SDS011;2391;47.212;7.542;2024-02-21T12:29:51;2.67;;;2.47;;
4754;SDS011;2391;47.212;7.542;2024-02-21T12:32:17;4.93;;;2.60;;
4754;SDS011;2391;47.212;7.542;2024-02-21T12:34:43;4.00;;;2.87;;
4754;SDS011;2391;47.212;7.542;2024-02-21T12:37:10;3.70;;;2.47;;
4754;SDS011;2391;47.212;7.542;2024-02-21T12:39:38;5.00;;;3.13;;
4754;SDS011;2391;47.212;7.542;2024-02-21T12:42:04;6.20;;;4.00;;
4754;SDS011;2391;47.212;7.542;2024-02-21T12:44:29;3.73;;;3.43;;
4754;SDS011;2391;47.212;7.542;2024-02-21T12:46:55;3.13;;;2.60;;
4754;SDS011;2391;47.212;7.542;2024-02-21T12:49:23;6.40;;;3.40;;
4754;SDS011;2391;47.212;7.542;2024-02-21T12:51:49;2.67;;;2.43;;
4754;SDS011;2391;47.212;7.542;2024-02-21T12:54:15;2.90;;;2.70;;
4754;SDS011;2391;47.212;7.542;2024-02-21T12:56:41;3.87;;;2.57;;
4754;SDS011;2391;47.212;7.542;2024-02-21T12:59:07;3.73;;;3.00;;
4754;SDS011;2391;47.212;7.542;2024-02-21T13:01:36;4.57;;;2.80;;
4754;SDS011;2391;47.212;7.542;2024-02-21T13:04:03;2.90;;;2.70;;
4754;SDS011;2391;47.212;7.542;2024-02-21T13:06:28;5.97;;;2.50;;
4754;SDS011;2391;47.212;7.542;2024-02-21T13:08:54;2.57;;;2.20;;
4754;SDS011;2391;47.212;7.542;2024-02-21T13:11:20;5.57;;;1.93;;
4754;SDS011;2391;47.212;7.542;2024-02-21T13:13:46;4.10;;;2.13;;
4754;SDS011;2391;47.212;7.542;2024-02-21T13:16:11;3.80;;;2.23;;
4754;SDS011;2391;47.212;7.542;2024-02-21T13:18:37;2.00;;;1.90;;
4754;SDS011;2391;47.212;7.542;2024-02-21T13:21:04;2.33;;;2.03;;
4754;SDS011;2391;47.212;7.542;2024-02-21T13:23:30;2.80;;;2.40;;
4754;SDS011;2391;47.212;7.542;2024-02-21T13:25:56;2.70;;;1.90;;
4754;SDS011;2391;47.212;7.542;2024-02-21T13:28:22;3.33;;;1.97;;
4754;SDS011;2391;47.212;7.542;2024-02-21T13:30:47;3.27;;;2.30;;
4754;SDS011;2391;47.212;7.542;2024-02-21T13:33:13;5.77;;;2.03;;
4754;SDS011;2391;47.212;7.542;2024-02-21T13:35:39;6.23;;;1.73;;
4754;SDS011;2391;47.212;7.542;2024-02-21T13:38:05;2.43;;;2.23;;
4754;SDS011;2391;47.212;7.542;2024-02-21T13:40:30;2.57;;;2.13;;
4754;SDS011;2391;47.212;7.542;2024-02-21T13:42:56;1.90;;;1.80;;
4754;SDS011;2391;47.212;7.542;2024-02-21T13:45:22;1.83;;;1.70;;
4754;SDS011;2391;47.212;7.542;2024-02-21T13:47:48;3.60;;;2.00;;
4754;SDS011;2391;47.212;7.542;2024-02-21T13:50:14;2.07;;;1.73;;
4754;SDS011;2391;47.212;7.542;2024-02-21T13:52:40;3.20;;;1.60;;
4754;SDS011;2391;47.212;7.542;2024-02-21T13:55:06;1.83;;;1.73;;
4754;SDS011;2391;47.212;7.542;2024-02-21T13:57:35;2.60;;;2.23;;
4754;SDS011;2391;47.212;7.542;2024-02-21T14:00:03;1.80;;;1.70;;
4754;SDS011;2391;47.212;7.542;2024-02-21T14:02:30;5.37;;;2.27;;
4754;SDS011;2391;47.212;7.542;2024-02-21T14:04:56;2.27;;;2.00;;
4754;SDS011;2391;47.212;7.542;2024-02-21T14:07:22;3.47;;;1.80;;
4754;SDS011;2391;47.212;7.542;2024-02-21T14:09:48;1.90;;;1.80;;
4754;SDS011;2391;47.212;7.542;2024-02-21T14:12:14;2.90;;;1.73;;
4754;SDS011;2391;47.212;7.542;2024-02-21T14:14:43;1.90;;;1.80;;
4754;SDS011;2391;47.212;7.542;2024-02-21T14:17:09;2.23;;;1.63;;
4754;SDS011;2391;47.212;7.542;2024-02-21T14:19:35;1.60;;;1.50;;
4754;SDS011;2391;47.212;7.542;2024-02-21T14:22:01;3.50;;;1.77;;
4754;SDS011;2391;47.212;7.542;2024-02-21T14:24:28;1.87;;;1.70;;
4754;SDS011;2391;47.212;7.542;2024-02-21T14:26:54;2.33;;;2.07;;
4754;SDS011;2391;47.212;7.542;2024-02-21T14:29:20;1.63;;;1.53;;
4754;SDS011;2391;47.212;7.542;2024-02-21T14:31:47;3.30;;;1.53;;
4754;SDS011;2391;47.212;7.542;2024-02-21T14:34:12;1.77;;;1.67;;
4754;SDS011;2391;47.212;7.542;2024-02-21T14:36:38;1.50;;;1.40;;
4754;SDS011;2391;47.212;7.542;2024-02-21T14:39:06;2.73;;;1.63;;
4754;SDS011;2391;47.212;7.542;2024-02-21T14:41:32;1.47;;;1.40;;
4754;SDS011;2391;47.212;7.542;2024-02-21T14:43:57;3.10;;;2.20;;
4754;SDS011;2391;47.212;7.542;2024-02-21T14:46:25;3.23;;;2.13;;
4754;SDS011;2391;47.212;7.542;2024-02-21T14:48:54;1.97;;;1.83;;
4754;SDS011;2391;47.212;7.542;2024-02-21T14:51:20;3.47;;;2.23;;
4754;SDS011;2391;47.212;7.542;2024-02-21T14:53:46;5.10;;;2.07;;
4754;SDS011;2391;47.212;7.542;2024-02-21T14:56:15;3.00;;;2.60;;
4754;SDS011;2391;47.212;7.542;2024-02-21T14:58:42;2.43;;;1.73;;
4754;SDS011;2391;47.212;7.542;2024-02-21T15:01:08;1.80;;;1.70;;
4754;SDS011;2391;47.212;7.542;2024-02-21T15:03:34;2.50;;;1.90;;
4754;SDS011;2391;47.212;7.542;2024-02-21T15:06:01;2.20;;;2.00;;
4754;SDS011;2391;47.212;7.542;2024-02-21T15:08:27;3.63;;;2.20;;
4754;SDS011;2391;47.212;7.542;2024-02-21T15:10:53;3.20;;;2.20;;
4754;SDS011;2391;47.212;7.542;2024-02-21T15:13:19;5.90;;;2.20;;
4754;SDS011;2391;47.212;7.542;2024-02-21T15:15:47;2.17;;;1.90;;